Time;durP1;ratioP1;P1;durP2;ratioP2;P2;SDS_P1;SDS_P2;PMS_P1;PMS_P2;Temp;Humidity;BMP_temperature;BMP_pressure;BME280_temperature;BME280_humidity;BME280_pressure;Samples;Min_cycle;Max_cycle;Signal;HPM_P1;HPM_P2
2023/11/14 00:00:20;;;;;;;;;;;;;;;12.81;100.00;94875.69;10545531;27;2743;-78
2023/11/14 00:05:23;;;;;;;;;;;;;;;12.80;100.00;94868.69;10558656;27;2685;-77
2023/11/14 00:10:30;;;;;;;;;;;;;;;12.64;100.00;94880.97;10561911;27;2568;-76
2023/11/14 00:15:36;;;;;;;;;;;;;;;12.46;100.00;94888.13;10562633;27;2529;-78
2023/11/14 00:20:44;;;;;;;;;;;;;;;12.49;100.00;94959.53;10565965;27;2600;-79
2023/11/14 00:25:51;;;;;;;;;;;;;;;12.37;100.00;94950.06;10569222;27;2644;-80
2023/11/14 00:31:01;;;;;;;;;;;;;;;12.37;100.00;94944.69;10568370;27;2617;-80
2023/11/14 00:36:04;;;;;;;;;;;;;;;12.34;100.00;94956.09;10568287;27;2585;-78
2023/11/14 00:41:07;;;;;;;;;;;;;;;12.29;100.00;94953.50;10569373;27;4733;-77
2023/11/14 00:46:12;;;;;;;;;;;;;;;12.14;100.00;94954.63;10545299;27;2623;-76
2023/11/14 00:51:15;;;;;;;;;;;;;;;12.04;100.00;94940.59;10528810;27;2606;-78
2023/11/14 00:56:26;;;;;;;;;;;;;;;12.01;100.00;94962.72;10561285;27;2617;-76
2023/11/14 01:01:35;;;;;;;;;;;;;;;12.07;100.00;94993.84;10561307;27;2616;-78
2023/11/14 01:06:40;;;;;;;;;;;;;;;12.11;100.00;95011.00;10527497;27;2607;-78
2023/11/14 01:11:43;;;;;;;;;;;;;;;12.05;100.00;94979.88;10567842;27;2540;-77
2023/11/14 01:16:55;;;;;;;;;;;;;;;12.15;100.00;95022.75;10561584;27;2674;-76
2023/11/14 01:22:26;;;;;;;;;;;;;;;12.14;100.00;95034.63;10562259;27;2970;-75
2023/11/14 01:27:32;;;;;;;;;;;;;;;12.13;100.00;95030.34;10570223;27;2635;-76
2023/11/14 01:32:37;;;;;;;;;;;;;;;12.13;100.00;95046.53;10547875;27;2683;-78
2023/11/14 01:37:50;;;;;;;;;;;;;;;11.68;100.00;95032.81;10560726;27;2660;-75
2023/11/14 01:42:56;;;;;;;;;;;;;;;11.31;100.00;95071.44;10568028;28;4760;-77
2023/11/14 01:48:25;;;;;;;;;;;;;;;11.05;100.00;95071.06;10567473;28;2652;-77
2023/11/14 01:53:29;;;;;;;;;;;;;;;10.61;100.00;95085.69;10547161;28;2655;-77
2023/11/14 01:58:37;;;;;;;;;;;;;;;10.35;100.00;95069.09;10568301;27;2624;-78
2023/11/14 02:03:42;;;;;;;;;;;;;;;10.24;100.00;95078.38;10549435;28;2573;-77
2023/11/14 02:08:55;;;;;;;;;;;;;;;10.17;100.00;95072.53;10561410;28;2657;-77
2023/11/14 02:14:05;;;;;;;;;;;;;;;10.07;100.00;95072.66;10547097;28;2553;-78
2023/11/14 02:19:09;;;;;;;;;;;;;;;10.17;100.00;95048.34;10562255;28;2615;-79
2023/11/14 02:24:12;;;;;;;;;;;;;;;10.19;100.00;95081.13;10564770;28;2776;-78
2023/11/14 02:29:18;;;;;;;;;;;;;;;10.05;100.00;95093.63;10565544;27;2682;-77
2023/11/14 02:34:35;;;;;;;;;;;;;;;9.90;100.00;95086.56;10569087;27;2641;-76
2023/11/14 02:39:39;;;;;;;;;;;;;;;9.80;100.00;95090.16;10575569;27;2553;-77
2023/11/14 02:44:42;;;;;;;;;;;;;;;9.71;100.00;95098.00;10574267;27;4912;-76
2023/11/14 02:49:54;;;;;;;;;;;;;;;9.65;100.00;95109.88;10575661;27;2711;-76
2023/11/14 02:55:00;;;;;;;;;;;;;;;9.62;100.00;95110.47;10574126;27;2708;-75
2023/11/14 03:00:05;;;;;;;;;;;;;;;9.59;100.00;95127.13;10588757;27;2646;-77
2023/11/14 03:05:16;;;;;;;;;;;;;;;9.55;100.00;95136.03;10573864;27;2586;-75
2023/11/14 03:10:19;;;;;;;;;;;;;;;9.53;100.00;95143.53;10558571;27;2590;-77
2023/11/14 03:15:26;;;;;;;;;;;;;;;9.43;100.00;95145.25;10568074;27;2696;-77
2023/11/14 03:20:33;;;;;;;;;;;;;;;9.42;100.00;95137.47;10568054;27;2677;-79
2023/11/14 03:25:43;;;;;;;;;;;;;;;9.36;100.00;95142.09;10561484;27;2725;-79
2023/11/14 03:30:47;;;;;;;;;;;;;;;9.36;100.00;95141.28;10554434;27;2601;-77
2023/11/14 03:35:50;;;;;;;;;;;;;;;9.40;100.00;95136.94;10559486;27;2574;-77
2023/11/14 03:41:00;;;;;;;;;;;;;;;9.39;100.00;95133.47;10550469;27;2572;-77
2023/11/14 03:46:28;;;;;;;;;;;;;;;9.40;100.00;95142.31;10554633;27;2604;-76
2023/11/14 03:51:38;;;;;;;;;;;;;;;9.39;100.00;95138.03;10564057;27;2828;-76
2023/11/14 03:56:48;;;;;;;;;;;;;;;9.38;100.00;95150.66;10530987;27;2633;-78
2023/11/14 04:02:05;;;;;;;;;;;;;;;9.35;100.00;95136.97;10553133;27;2723;-79
2023/11/14 04:07:11;;;;;;;;;;;;;;;9.29;100.00;95133.56;10564794;27;2762;-77
2023/11/14 04:12:26;;;;;;;;;;;;;;;9.19;100.00;95150.53;10530234;27;2886;-79
2023/11/14 04:17:30;;;;;;;;;;;;;;;9.23;100.00;95147.28;10564109;27;2614;-78
2023/11/14 04:22:50;;;;;;;;;;;;;;;9.16;100.00;95143.06;10567186;27;2693;-78
2023/11/14 04:27:55;;;;;;;;;;;;;;;9.18;100.00;95140.09;10569605;27;2711;-78
2023/11/14 04:32:59;;;;;;;;;;;;;;;9.17;100.00;95165.31;10569037;27;2634;-76
2023/11/14 04:38:06;;;;;;;;;;;;;;;9.20;100.00;95164.72;10570258;27;2711;-76
2023/11/14 04:43:10;;;;;;;;;;;;;;;9.28;100.00;95168.69;10570157;27;4825;-75
2023/11/14 04:48:14;;;;;;;;;;;;;;;9.26;100.00;95160.13;10544087;27;2633;-77
2023/11/14 04:53:18;;;;;;;;;;;;;;;9.26;100.00;95201.16;10560666;27;2584;-79
2023/11/14 04:58:34;;;;;;;;;;;;;;;9.23;100.00;95219.69;10566347;27;2564;-77
2023/11/14 05:03:38;;;;;;;;;;;;;;;9.24;100.00;95222.09;10544575;27;2603;-78
2023/11/14 05:08:43;;;;;;;;;;;;;;;9.23;100.00;95225.88;10568853;27;2868;-79
2023/11/14 05:13:52;;;;;;;;;;;;;;;9.27;100.00;95247.56;10549942;27;2751;-78
2023/11/14 05:18:58;;;;;;;;;;;;;;;9.24;100.00;95226.66;10547163;27;2825;-77
2023/11/14 05:29:48;;;;;;;;;;;;;;;9.26;100.00;95241.38;10569287;27;2616;-77
2023/11/14 05:34:56;;;;;;;;;;;;;;;9.16;100.00;95247.63;10566859;27;2710;-79
2023/11/14 05:40:40;;;;;;;;;;;;;;;9.21;100.00;95231.47;10561869;27;2537;-80
2023/11/14 05:45:56;;;;;;;;;;;;;;;9.23;100.00;95227.75;10567309;28;2732;-76
2023/11/14 05:51:06;;;;;;;;;;;;;;;9.20;100.00;95221.03;10548208;28;2607;-77
2023/11/14 05:56:10;;;;;;;;;;;;;;;9.27;100.00;95236.81;10572665;28;2734;-85
2023/11/14 06:01:14;;;;;;;;;;;;;;;9.31;100.00;95253.97;10595034;28;2638;-78
2023/11/14 06:06:19;;;;;;;;;;;;;;;9.33;100.00;95254.47;10561810;27;2631;-82
2023/11/14 06:11:28;;;;;;;;;;;;;;;9.31;100.00;95259.34;10578154;27;2658;-77
2023/11/14 06:16:38;;;;;;;;;;;;;;;9.36;100.00;95268.16;10547158;27;2800;-77
2023/11/14 06:21:44;;;;;;;;;;;;;;;9.37;100.00;95274.31;10573380;27;2609;-81
2023/11/14 06:26:47;;;;;;;;;;;;;;;9.35;100.00;95281.81;10573466;27;2578;-80
2023/11/14 06:31:54;;;;;;;;;;;;;;;9.33;100.00;95278.63;10538044;27;2588;-78
2023/11/14 06:37:06;;;;;;;;;;;;;;;9.30;100.00;95298.78;10528917;27;2742;-77
2023/11/14 06:42:12;;;;;;;;;;;;;;;9.28;100.00;95327.72;10549345;27;4756;-75
2023/11/14 06:47:15;;;;;;;;;;;;;;;9.25;100.00;95324.81;10560712;27;2691;-75
2023/11/14 06:52:26;;;;;;;;;;;;;;;9.23;100.00;95310.88;10569673;27;2642;-75
2023/11/14 06:57:32;;;;;;;;;;;;;;;9.26;100.00;95321.03;10567726;27;2702;-76
2023/11/14 07:02:39;;;;;;;;;;;;;;;9.25;100.00;95325.59;10554013;27;2611;-76
2023/11/14 07:07:54;;;;;;;;;;;;;;;9.24;100.00;95347.34;10570920;27;2639;-75
2023/11/14 07:12:59;;;;;;;;;;;;;;;9.24;100.00;95342.78;10551290;27;2643;-73
2023/11/14 07:18:09;;;;;;;;;;;;;;;9.34;100.00;95352.66;10569764;27;2708;-75
2023/11/14 07:23:13;;;;;;;;;;;;;;;9.35;100.00;95357.75;10569107;27;2731;-74
2023/11/14 07:28:20;;;;;;;;;;;;;;;9.42;100.00;95369.00;10565368;27;2897;-75
2023/11/14 07:33:24;;;;;;;;;;;;;;;9.42;100.00;95369.00;10550213;27;2623;-75
2023/11/14 07:38:29;;;;;;;;;;;;;;;9.43;100.00;95380.53;10569344;27;2756;-77
2023/11/14 07:43:35;;;;;;;;;;;;;;;9.51;100.00;95401.41;10578977;27;4649;-75
2023/11/14 07:48:39;;;;;;;;;;;;;;;9.48;100.00;95405.44;10570581;27;2703;-73
2023/11/14 07:53:42;;;;;;;;;;;;;;;9.50;100.00;95405.16;10569305;27;2676;-73
2023/11/14 07:58:47;;;;;;;;;;;;;;;9.47;100.00;95403.03;10550342;27;2626;-73
2023/11/14 08:03:50;;;;;;;;;;;;;;;9.53;100.00;95391.19;10545095;27;2605;-76
2023/11/14 08:08:56;;;;;;;;;;;;;;;9.63;100.00;95407.25;10568922;27;2627;-75
2023/11/14 08:13:59;;;;;;;;;;;;;;;9.65;100.00;95413.13;10540146;27;2575;-74
2023/11/14 08:19:06;;;;;;;;;;;;;;;9.78;100.00;95413.59;10539840;27;2692;-73
2023/11/14 08:24:09;;;;;;;;;;;;;;;10.07;100.00;95419.88;10567272;27;2656;-74
2023/11/14 08:29:13;;;;;;;;;;;;;;;10.11;100.00;95391.38;10543527;27;2745;-75
2023/11/14 08:34:17;;;;;;;;;;;;;;;10.32;100.00;95359.03;10568711;27;2573;-74
2023/11/14 08:39:26;;;;;;;;;;;;;;;10.57;100.00;95368.75;10564862;27;2664;-74
2023/11/14 08:44:35;;;;;;;;;;;;;;;10.89;100.00;95360.91;10563702;27;4681;-76
2023/11/14 08:49:40;;;;;;;;;;;;;;;10.83;100.00;95397.78;10560042;27;2545;-77
2023/11/14 08:54:43;;;;;;;;;;;;;;;10.61;100.00;95410.88;10562210;27;2585;-74
2023/11/14 08:59:47;;;;;;;;;;;;;;;10.65;100.00;95403.88;10565818;27;2671;-78
2023/11/14 09:04:54;;;;;;;;;;;;;;;10.63;100.00;95381.88;10560638;27;2643;-77
2023/11/14 09:10:01;;;;;;;;;;;;;;;10.66;100.00;95392.03;10543875;27;2622;-77
2023/11/14 09:15:14;;;;;;;;;;;;;;;10.65;100.00;95401.19;10532223;27;2574;-76
2023/11/14 09:20:19;;;;;;;;;;;;;;;10.68;100.00;95384.47;10561099;27;2578;-78
2023/11/14 09:25:26;;;;;;;;;;;;;;;10.71;100.00;95396.56;10555092;27;2648;-78
2023/11/14 09:30:35;;;;;;;;;;;;;;;10.61;100.00;95394.75;10558793;27;2656;-77
2023/11/14 09:35:48;;;;;;;;;;;;;;;10.66;100.00;95375.09;10554470;27;2730;-77
2023/11/14 09:40:52;;;;;;;;;;;;;;;10.54;100.00;95381.66;10556306;28;4744;-78
2023/11/14 09:45:59;;;;;;;;;;;;;;;10.49;100.00;95391.66;10560344;28;2560;-79
2023/11/14 09:51:02;;;;;;;;;;;;;;;10.46;100.00;95362.66;10540662;28;2576;-79
2023/11/14 09:56:16;;;;;;;;;;;;;;;10.44;100.00;95327.22;10547707;28;3152;-76
2023/11/14 10:01:21;;;;;;;;;;;;;;;10.37;100.00;95383.16;10559161;28;2585;-76
2023/11/14 10:06:25;;;;;;;;;;;;;;;10.26;100.00;95399.38;10559324;28;2553;-78
2023/11/14 10:11:35;;;;;;;;;;;;;;;10.47;100.00;95401.88;10558144;28;2624;-78
2023/11/14 10:17:02;;;;;;;;;;;;;;;10.81;100.00;95377.63;10533298;28;2732;-78
2023/11/14 10:22:07;;;;;;;;;;;;;;;10.92;100.00;95340.69;10539508;28;2826;-76
2023/11/14 10:27:28;;;;;;;;;;;;;;;11.02;100.00;95313.69;10560617;28;2644;-78
2023/11/14 10:32:33;;;;;;;;;;;;;;;10.94;100.00;95308.94;10559138;28;2629;-78
2023/11/14 10:37:51;;;;;;;;;;;;;;;11.20;100.00;95310.25;10544724;28;2649;-76
2023/11/14 10:42:56;;;;;;;;;;;;;;;11.28;100.00;95309.59;10565294;28;4724;-76
2023/11/14 10:48:00;;;;;;;;;;;;;;;11.26;100.00;95322.56;10577319;28;2592;-77
2023/11/14 10:53:03;;;;;;;;;;;;;;;11.19;100.00;95292.47;10591517;27;2574;-77
2023/11/14 10:58:09;;;;;;;;;;;;;;;11.28;100.00;95293.47;10581689;27;2549;-77
2023/11/14 11:03:23;;;;;;;;;;;;;;;11.26;100.00;95282.19;10552808;27;2659;-78
2023/11/14 11:08:31;;;;;;;;;;;;;;;11.00;100.00;95272.81;10570510;27;2599;-78
2023/11/14 11:13:41;;;;;;;;;;;;;;;10.80;100.00;95276.56;10555603;27;2650;-76
2023/11/14 11:18:50;;;;;;;;;;;;;;;10.77;100.00;95275.25;10549082;27;2578;-76
2023/11/14 11:23:53;;;;;;;;;;;;;;;10.76;100.00;95265.59;10566899;27;2627;-77
2023/11/14 11:28:59;;;;;;;;;;;;;;;10.83;100.00;95255.28;10547897;27;2724;-77
2023/11/14 11:34:08;;;;;;;;;;;;;;;10.94;100.00;95261.34;10555360;27;2658;-77
2023/11/14 11:39:14;;;;;;;;;;;;;;;10.94;100.00;95245.22;10569222;27;2589;-78
2023/11/14 11:44:18;;;;;;;;;;;;;;;10.97;100.00;95290.34;10546351;27;4641;-78
2023/11/14 11:49:22;;;;;;;;;;;;;;;11.08;100.00;95261.44;10564604;27;2680;-78
2023/11/14 11:54:27;;;;;;;;;;;;;;;11.15;100.00;95247.63;10538672;27;2604;-78
2023/11/14 11:59:30;;;;;;;;;;;;;;;11.25;100.00;95217.88;10546713;27;2605;-77
2023/11/14 12:04:34;;;;;;;;;;;;;;;11.38;100.00;95219.84;10544038;27;2680;-77
2023/11/14 12:09:39;;;;;;;;;;;;;;;11.60;100.00;95227.34;10566004;27;2771;-77
2023/11/14 12:14:42;;;;;;;;;;;;;;;11.60;100.00;95227.34;10563899;27;2641;-75
2023/11/14 12:19:51;;;;;;;;;;;;;;;11.39;100.00;95229.53;10544690;27;2615;-76
2023/11/14 12:24:54;;;;;;;;;;;;;;;11.50;100.00;95211.34;10553413;27;2681;-76
2023/11/14 12:29:59;;;;;;;;;;;;;;;11.48;100.00;95181.22;10531057;27;3013;-77
2023/11/14 12:35:07;;;;;;;;;;;;;;;11.43;100.00;95165.16;10564245;27;2606;-78
2023/11/14 12:45:33;;;;;;;;;;;;;;;11.21;100.00;95145.06;10560533;27;4718;-77
2023/11/14 12:50:36;;;;;;;;;;;;;;;11.17;100.00;95144.03;10569112;27;2706;-77
2023/11/14 12:55:41;;;;;;;;;;;;;;;11.12;100.00;95141.41;10559335;27;2611;-78
2023/11/14 13:00:48;;;;;;;;;;;;;;;11.04;100.00;95126.72;10562848;27;2605;-71
2023/11/14 13:05:53;;;;;;;;;;;;;;;10.99;100.00;95117.94;10540569;27;2683;-71
2023/11/14 13:11:00;;;;;;;;;;;;;;;10.95;100.00;95131.19;10555236;27;2700;-71
2023/11/14 13:16:06;;;;;;;;;;;;;;;10.93;100.00;95127.16;10560435;27;2742;-69
2023/11/14 13:21:09;;;;;;;;;;;;;;;10.98;100.00;95127.09;10546337;27;2738;-69
2023/11/14 13:26:13;;;;;;;;;;;;;;;10.95;100.00;95131.19;10535061;27;2750;-71
2023/11/14 13:31:19;;;;;;;;;;;;;;;10.94;100.00;95124.22;10538469;27;2691;-77
2023/11/14 13:36:27;;;;;;;;;;;;;;;10.89;100.00;95129.66;10556679;27;2657;-74
2023/11/14 13:41:36;;;;;;;;;;;;;;;10.83;100.00;95150.44;10554447;27;2651;-74
2023/11/14 13:46:49;;;;;;;;;;;;;;;10.69;100.00;95149.56;10559912;27;2886;-72
2023/11/14 13:51:54;;;;;;;;;;;;;;;10.13;100.00;95162.84;10560897;28;2614;-72
2023/11/14 13:57:04;;;;;;;;;;;;;;;9.79;100.00;95165.56;10558944;28;2696;-72
2023/11/14 14:02:34;;;;;;;;;;;;;;;9.62;100.00;95195.53;10553882;28;2660;-76
2023/11/14 14:07:48;;;;;;;;;;;;;;;9.63;100.00;95205.97;10557525;28;2606;-73
2023/11/14 14:12:51;;;;;;;;;;;;;;;9.57;100.00;95225.88;10557878;28;2545;-72
2023/11/14 14:17:55;;;;;;;;;;;;;;;9.38;100.00;95228.44;10528791;28;2623;-71
2023/11/14 14:22:58;;;;;;;;;;;;;;;9.10;100.00;95238.00;10519811;28;2708;-69
2023/11/14 14:28:08;;;;;;;;;;;;;;;8.73;100.00;95224.25;10540924;27;2597;-71
2023/11/14 14:33:12;;;;;;;;;;;;;;;8.59;100.00;95226.72;10559204;27;2660;-71
2023/11/14 14:38:17;;;;;;;;;;;;;;;8.39;100.00;95249.00;10560063;27;2751;-71
2023/11/14 14:43:23;;;;;;;;;;;;;;;8.21;100.00;95245.03;10554289;27;4860;-74
2023/11/14 14:48:27;;;;;;;;;;;;;;;8.03;100.00;95241.03;10563351;27;2599;-69
2023/11/14 14:53:32;;;;;;;;;;;;;;;7.92;100.00;95239.44;10549214;27;2614;-71
2023/11/14 14:58:39;;;;;;;;;;;;;;;7.88;100.00;95249.06;10563733;27;2695;-75
2023/11/14 15:03:49;;;;;;;;;;;;;;;7.74;100.00;95251.50;10559428;27;2581;-70
2023/11/14 15:08:53;;;;;;;;;;;;;;;7.64;100.00;95248.03;10553566;27;2590;-69
2023/11/14 15:14:00;;;;;;;;;;;;;;;7.50;100.00;95235.16;10542906;27;2603;-70
2023/11/14 15:19:08;;;;;;;;;;;;;;;7.59;100.00;95238.91;10541562;27;2629;-71
2023/11/14 15:24:11;;;;;;;;;;;;;;;7.63;100.00;95235.69;10559396;27;2677;-71
2023/11/14 15:29:17;;;;;;;;;;;;;;;7.62;100.00;95220.72;10545997;27;2619;-73
2023/11/14 15:34:22;;;;;;;;;;;;;;;7.62;100.00;95202.00;10559101;27;2666;-72
2023/11/14 15:39:33;;;;;;;;;;;;;;;7.65;100.00;95204.97;10558417;27;2580;-72
2023/11/14 15:44:41;;;;;;;;;;;;;;;7.67;100.00;95207.34;10561265;27;4706;-73
2023/11/14 15:49:44;;;;;;;;;;;;;;;7.67;100.00;95199.31;10559993;27;2635;-71
2023/11/14 15:54:50;;;;;;;;;;;;;;;7.67;100.00;95199.31;10561622;27;2691;-72
2023/11/14 16:00:04;;;;;;;;;;;;;;;7.70;100.00;95193.44;10563799;27;2608;-69
2023/11/14 16:05:07;;;;;;;;;;;;;;;7.68;100.00;95174.97;10559356;27;2589;-70
2023/11/14 16:10:10;;;;;;;;;;;;;;;7.72;100.00;95175.25;10560915;27;2565;-73
2023/11/14 16:15:17;;;;;;;;;;;;;;;7.54;100.00;95166.69;10557624;27;2699;-73
2023/11/14 16:20:25;;;;;;;;;;;;;;;7.61;100.00;95166.44;10527327;27;3040;-70
2023/11/14 16:25:33;;;;;;;;;;;;;;;7.63;100.00;95158.13;10540722;27;2668;-71
2023/11/14 16:30:39;;;;;;;;;;;;;;;7.67;100.00;95138.59;10557677;27;2588;-70
2023/11/14 16:35:43;;;;;;;;;;;;;;;7.64;100.00;95115.09;10517776;27;2700;-70
2023/11/14 16:40:49;;;;;;;;;;;;;;;7.66;100.00;95109.47;10565407;27;4764;-71
2023/11/14 16:45:54;;;;;;;;;;;;;;;7.70;100.00;95118.53;10524806;27;2679;-72
2023/11/14 16:51:02;;;;;;;;;;;;;;;7.64;100.00;95119.63;10528777;27;2624;-70
2023/11/14 16:56:05;;;;;;;;;;;;;;;7.58;100.00;95097.44;10564205;27;2622;-71
2023/11/14 17:01:11;;;;;;;;;;;;;;;7.66;100.00;95074.69;10549754;27;2614;-69
2023/11/14 17:06:14;;;;;;;;;;;;;;;7.62;100.00;95052.22;10556057;27;3013;-74
2023/11/14 17:11:19;;;;;;;;;;;;;;;7.63;100.00;95053.81;10559319;27;2584;-75
2023/11/14 17:16:25;;;;;;;;;;;;;;;7.63;100.00;95056.47;10543570;27;2611;-70
2023/11/14 17:21:29;;;;;;;;;;;;;;;7.67;100.00;95062.91;10545665;27;2689;-72
2023/11/14 17:26:37;;;;;;;;;;;;;;;7.61;100.00;95023.88;10556069;27;2676;-72
2023/11/14 17:31:44;;;;;;;;;;;;;;;7.63;100.00;94986.94;10545009;27;2680;-71
2023/11/14 17:36:48;;;;;;;;;;;;;;;7.73;100.00;95011.78;10557601;27;2643;-73
2023/11/14 17:41:54;;;;;;;;;;;;;;;7.74;100.00;95002.69;10543055;27;2657;-71
2023/11/14 17:47:04;;;;;;;;;;;;;;;7.75;100.00;95000.81;10560991;27;2604;-71
2023/11/14 17:52:12;;;;;;;;;;;;;;;7.80;100.00;94996.22;10539424;28;2815;-73
2023/11/14 17:57:18;;;;;;;;;;;;;;;7.74;100.00;95000.00;10536738;28;2656;-72
2023/11/14 18:02:21;;;;;;;;;;;;;;;7.77;100.00;95001.34;10544866;27;2656;-69
2023/11/14 18:07:24;;;;;;;;;;;;;;;7.87;100.00;94995.94;10576949;27;2620;-73
2023/11/14 18:12:37;;;;;;;;;;;;;;;7.81;100.00;94997.81;10573794;27;2607;-73
2023/11/14 18:17:47;;;;;;;;;;;;;;;7.82;100.00;94978.06;10552160;27;2597;-72
2023/11/14 18:22:51;;;;;;;;;;;;;;;7.71;100.00;94919.50;10566984;27;2693;-72
2023/11/14 18:27:57;;;;;;;;;;;;;;;7.70;100.00;94937.44;10569919;27;2886;-71
2023/11/14 18:33:11;;;;;;;;;;;;;;;7.76;100.00;94944.38;10569876;27;2655;-72
2023/11/14 18:38:15;;;;;;;;;;;;;;;7.78;100.00;94915.47;10569057;27;2660;-72
2023/11/14 18:43:18;;;;;;;;;;;;;;;7.89;100.00;94893.97;10548510;27;4714;-70
2023/11/14 18:48:25;;;;;;;;;;;;;;;7.87;100.00;94894.25;10545997;27;2603;-71
2023/11/14 18:53:37;;;;;;;;;;;;;;;7.97;100.00;94896.88;10553270;27;2562;-72
2023/11/14 18:58:46;;;;;;;;;;;;;;;8.03;100.00;94898.44;10560461;27;2576;-70
2023/11/14 19:03:54;;;;;;;;;;;;;;;8.05;100.00;94890.91;10560921;27;2787;-72
2023/11/14 19:08:59;;;;;;;;;;;;;;;8.11;100.00;94879.09;10546537;27;2630;-72
2023/11/14 19:14:09;;;;;;;;;;;;;;;8.16;100.00;94872.13;10546678;27;2687;-71
2023/11/14 19:19:14;;;;;;;;;;;;;;;8.27;100.00;94863.72;10551386;27;2567;-72
2023/11/14 19:24:18;;;;;;;;;;;;;;;8.31;100.00;94855.91;10534823;27;2686;-72
2023/11/14 19:29:26;;;;;;;;;;;;;;;8.34;100.00;94869.56;10560312;27;2536;-70
2023/11/14 19:34:31;;;;;;;;;;;;;;;8.41;100.00;94890.69;10557917;27;2636;-70
2023/11/14 19:39:38;;;;;;;;;;;;;;;8.44;100.00;94882.06;10542483;27;2686;-70
2023/11/14 19:44:43;;;;;;;;;;;;;;;8.50;100.00;94886.31;10560775;27;4686;-71
2023/11/14 19:49:49;;;;;;;;;;;;;;;8.58;100.00;94882.22;10567190;27;2056;-74
2023/11/14 20:00:22;;;;;;;;;;;;;;;8.68;100.00;94894.72;10561848;28;1531;-73
2023/11/14 20:05:25;;;;;;;;;;;;;;;8.72;100.00;94909.16;10560118;28;2110;-71
2023/11/14 20:10:34;;;;;;;;;;;;;;;8.81;100.00;94902.09;10563123;28;1699;-71
2023/11/14 20:21:01;;;;;;;;;;;;;;;8.98;100.00;94907.81;10567904;28;1563;-75
2023/11/14 20:26:04;;;;;;;;;;;;;;;9.09;100.00;94889.72;10548911;28;2425;-74
2023/11/14 20:31:11;;;;;;;;;;;;;;;9.11;100.00;94898.31;10560404;28;1555;-74
2023/11/14 20:36:16;;;;;;;;;;;;;;;9.11;100.00;94891.06;10547588;28;1826;-74
2023/11/14 20:41:22;;;;;;;;;;;;;;;9.10;100.00;94889.47;10562560;28;4639;-74
2023/11/14 20:46:37;;;;;;;;;;;;;;;9.10;100.00;94897.50;10553208;28;1906;-75
2023/11/14 20:51:53;;;;;;;;;;;;;;;9.12;100.00;94881.13;10549430;28;1825;-74
2023/11/14 20:57:06;;;;;;;;;;;;;;;9.18;100.00;94890.72;10568859;28;1478;-74
2023/11/14 21:02:09;;;;;;;;;;;;;;;9.26;100.00;94914.22;10567138;28;1914;-74
2023/11/14 21:07:15;;;;;;;;;;;;;;;9.03;100.00;94915.78;10544718;28;1635;-74
2023/11/14 21:12:17;;;;;;;;;;;;;;;8.86;100.00;94913.56;10563254;28;1669;-76
2023/11/14 21:17:21;;;;;;;;;;;;;;;8.65;100.00;94915.66;10554131;28;1499;-75
2023/11/14 21:22:25;;;;;;;;;;;;;;;8.51;100.00;94925.41;10546609;28;1918;-74
2023/11/14 21:27:31;;;;;;;;;;;;;;;8.43;100.00;94931.34;10554003;28;1471;-74
2023/11/14 21:32:47;;;;;;;;;;;;;;;8.36;100.00;94917.50;10565587;28;1563;-75
2023/11/14 21:37:54;;;;;;;;;;;;;;;8.35;100.00;94891.78;10567584;28;1432;-74
2023/11/14 21:48:18;;;;;;;;;;;;;;;8.16;100.00;94976.53;10554859;28;2483;-77
2023/11/14 21:53:21;;;;;;;;;;;;;;;8.15;100.00;94974.94;10568078;28;2592;-78
2023/11/14 21:58:27;;;;;;;;;;;;;;;8.11;100.00;94972.00;10566319;28;2584;-73
2023/11/14 22:03:37;;;;;;;;;;;;;;;8.07;100.00;94955.66;10539775;28;2708;-73
2023/11/14 22:08:42;;;;;;;;;;;;;;;8.09;100.00;94961.56;10544537;28;2625;-74
2023/11/14 22:13:49;;;;;;;;;;;;;;;8.07;100.00;94962.91;10560046;28;2627;-74
2023/11/14 22:18:55;;;;;;;;;;;;;;;8.06;100.00;94998.78;10538858;28;2645;-75
2023/11/14 22:23:59;;;;;;;;;;;;;;;8.03;100.00;94984.09;10561806;28;2542;-73
2023/11/14 22:29:13;;;;;;;;;;;;;;;7.96;100.00;94996.19;10565639;28;2612;-73
2023/11/14 22:34:26;;;;;;;;;;;;;;;7.89;100.00;95017.06;10558449;28;2579;-73
2023/11/14 22:39:36;;;;;;;;;;;;;;;7.80;100.00;95016.84;10547198;28;2585;-73
2023/11/14 22:44:48;;;;;;;;;;;;;;;7.74;100.00;95023.28;10564928;27;4732;-73
2023/11/14 22:49:57;;;;;;;;;;;;;;;7.71;100.00;95034.53;10555688;27;2673;-74
2023/11/14 22:55:06;;;;;;;;;;;;;;;7.73;100.00;95043.09;10568648;27;2600;-72
2023/11/14 23:00:19;;;;;;;;;;;;;;;7.63;100.00;95043.13;10570639;27;2659;-74
2023/11/14 23:05:28;;;;;;;;;;;;;;;7.70;100.00;95038.28;10569496;27;2678;-73
2023/11/14 23:10:37;;;;;;;;;;;;;;;7.84;100.00;95044.66;10547344;27;2616;-73
2023/11/14 23:15:48;;;;;;;;;;;;;;;7.87;100.00;95033.41;10523409;27;2580;-72
2023/11/14 23:20:52;;;;;;;;;;;;;;;7.80;100.00;95049.75;10566468;27;2588;-74
2023/11/14 23:26:00;;;;;;;;;;;;;;;7.76;100.00;95046.03;10548557;27;2662;-73
2023/11/14 23:31:05;;;;;;;;;;;;;;;7.78;100.00;95043.06;10552699;27;2680;-71
2023/11/14 23:36:13;;;;;;;;;;;;;;;7.82;100.00;95038.75;10546079;27;2711;-72
2023/11/14 23:41:27;;;;;;;;;;;;;;;7.82;100.00;95054.81;10566202;27;5206;-73
2023/11/14 23:46:37;;;;;;;;;;;;;;;8.08;100.00;95053.66;10573596;27;2659;-73
2023/11/14 23:51:41;;;;;;;;;;;;;;;8.04;100.00;95073.22;10550851;27;2655;-74
2023/11/14 23:56:43;;;;;;;;;;;;;;;8.07;100.00;95094.06;10563491;27;2642;-73
